sensor_id;sensor_type;location;lat;lon;timestamp;temperature;humidity
44647;DHT22;56315;-33.902;151.160;2023-02-15T00:01:45;29.20;99.90
44647;DHT22;56315;-33.902;151.160;2023-02-15T00:04:15;29.80;99.90
44647;DHT22;56315;-33.902;151.160;2023-02-15T00:06:42;30.40;99.90
44647;DHT22;56315;-33.902;151.160;2023-02-15T00:09:09;31.20;99.90
44647;DHT22;56315;-33.902;151.160;2023-02-15T00:11:37;31.60;99.90
44647;DHT22;56315;-33.902;151.160;2023-02-15T00:14:15;32.00;99.90
44647;DHT22;56315;-33.902;151.160;2023-02-15T00:16:42;32.70;99.90
44647;DHT22;56315;-33.902;151.160;2023-02-15T00:19:10;33.30;98.80
44647;DHT22;56315;-33.902;151.160;2023-02-15T00:21:37;33.50;98.30
44647;DHT22;56315;-33.902;151.160;2023-02-15T00:24:05;33.00;98.70
44647;DHT22;56315;-33.902;151.160;2023-02-15T00:26:32;32.80;98.50
44647;DHT22;56315;-33.902;151.160;2023-02-15T00:28:59;32.80;98.50
44647;DHT22;56315;-33.902;151.160;2023-02-15T00:31:26;32.10;99.00
44647;DHT22;56315;-33.902;151.160;2023-02-15T00:33:53;31.80;99.90
44647;DHT22;56315;-33.902;151.160;2023-02-15T00:36:20;31.70;99.90
44647;DHT22;56315;-33.902;151.160;2023-02-15T00:38:46;31.90;99.00
44647;DHT22;56315;-33.902;151.160;2023-02-15T00:41:13;31.90;98.80
44647;DHT22;56315;-33.902;151.160;2023-02-15T00:43:40;31.60;99.90
44647;DHT22;56315;-33.902;151.160;2023-02-15T00:46:06;30.60;99.90
44647;DHT22;56315;-33.902;151.160;2023-02-15T00:48:33;30.00;99.90
44647;DHT22;56315;-33.902;151.160;2023-02-15T00:51:00;29.20;99.90
44647;DHT22;56315;-33.902;151.160;2023-02-15T00:53:27;28.40;99.90
44647;DHT22;56315;-33.902;151.160;2023-02-15T00:55:54;28.40;99.90
44647;DHT22;56315;-33.902;151.160;2023-02-15T00:58:21;29.00;99.90
44647;DHT22;56315;-33.902;151.160;2023-02-15T01:00:48;29.70;99.90
44647;DHT22;56315;-33.902;151.160;2023-02-15T01:03:15;30.30;99.90
44647;DHT22;56315;-33.902;151.160;2023-02-15T01:05:41;30.30;99.90
44647;DHT22;56315;-33.902;151.160;2023-02-15T01:08:09;29.80;99.90
44647;DHT22;56315;-33.902;151.160;2023-02-15T01:10:35;29.90;99.90
44647;DHT22;56315;-33.902;151.160;2023-02-15T01:13:02;30.30;99.90
44647;DHT22;56315;-33.902;151.160;2023-02-15T01:15:30;30.70;99.00
44647;DHT22;56315;-33.902;151.160;2023-02-15T01:17:59;30.90;99.90
44647;DHT22;56315;-33.902;151.160;2023-02-15T01:20:27;30.70;99.40
44647;DHT22;56315;-33.902;151.160;2023-02-15T01:22:54;31.00;99.70
44647;DHT22;56315;-33.902;151.160;2023-02-15T01:25:22;31.10;99.30
44647;DHT22;56315;-33.902;151.160;2023-02-15T01:27:49;31.40;99.50
44647;DHT22;56315;-33.902;151.160;2023-02-15T01:30:15;31.90;98.90
44647;DHT22;56315;-33.902;151.160;2023-02-15T01:32:42;32.20;98.50
44647;DHT22;56315;-33.902;151.160;2023-02-15T01:35:09;32.20;98.80
44647;DHT22;56315;-33.902;151.160;2023-02-15T01:37:36;32.20;98.30
44647;DHT22;56315;-33.902;151.160;2023-02-15T01:40:04;32.30;98.20
44647;DHT22;56315;-33.902;151.160;2023-02-15T01:42:33;32.30;97.90
44647;DHT22;56315;-33.902;151.160;2023-02-15T01:45:01;32.30;98.50
44647;DHT22;56315;-33.902;151.160;2023-02-15T01:47:41;32.20;97.60
44647;DHT22;56315;-33.902;151.160;2023-02-15T01:50:11;32.10;98.20
44647;DHT22;56315;-33.902;151.160;2023-02-15T01:52:40;32.30;98.10
44647;DHT22;56315;-33.902;151.160;2023-02-15T01:55:09;32.40;97.70
44647;DHT22;56315;-33.902;151.160;2023-02-15T01:57:36;32.50;98.40
44647;DHT22;56315;-33.902;151.160;2023-02-15T02:00:03;32.50;97.80
44647;DHT22;56315;-33.902;151.160;2023-02-15T02:02:30;32.30;97.30
44647;DHT22;56315;-33.902;151.160;2023-02-15T02:05:00;31.90;97.50
44647;DHT22;56315;-33.902;151.160;2023-02-15T02:07:37;31.60;98.00
44647;DHT22;56315;-33.902;151.160;2023-02-15T02:10:05;31.60;98.20
44647;DHT22;56315;-33.902;151.160;2023-02-15T02:12:32;31.30;98.10
44647;DHT22;56315;-33.902;151.160;2023-02-15T02:14:59;31.00;98.70
44647;DHT22;56315;-33.902;151.160;2023-02-15T02:25:14;30.80;99.30
44647;DHT22;56315;-33.902;151.160;2023-02-15T02:30:38;31.00;98.70
44647;DHT22;56315;-33.902;151.160;2023-02-15T02:33:39;30.90;99.20
44647;DHT22;56315;-33.902;151.160;2023-02-15T02:36:13;30.80;98.90
44647;DHT22;56315;-33.902;151.160;2023-02-15T02:38:44;30.80;99.20
44647;DHT22;56315;-33.902;151.160;2023-02-15T02:43:55;30.30;99.90
44647;DHT22;56315;-33.902;151.160;2023-02-15T02:46:34;30.00;99.90
44647;DHT22;56315;-33.902;151.160;2023-02-15T02:49:02;30.00;99.90
44647;DHT22;56315;-33.902;151.160;2023-02-15T02:51:29;30.00;99.90
44647;DHT22;56315;-33.902;151.160;2023-02-15T02:53:56;30.00;99.90
44647;DHT22;56315;-33.902;151.160;2023-02-15T02:56:35;30.00;99.90
44647;DHT22;56315;-33.902;151.160;2023-02-15T03:01:34;29.90;99.90
44647;DHT22;56315;-33.902;151.160;2023-02-15T03:04:24;30.00;99.90
44647;DHT22;56315;-33.902;151.160;2023-02-15T03:12:00;29.90;99.90
44647;DHT22;56315;-33.902;151.160;2023-02-15T03:14:31;29.60;99.90
44647;DHT22;56315;-33.902;151.160;2023-02-15T03:16:57;29.60;99.90
44647;DHT22;56315;-33.902;151.160;2023-02-15T03:19:28;29.60;99.90
44647;DHT22;56315;-33.902;151.160;2023-02-15T03:21:57;29.50;99.90
44647;DHT22;56315;-33.902;151.160;2023-02-15T03:24:36;29.40;99.90
44647;DHT22;56315;-33.902;151.160;2023-02-15T03:27:04;29.40;99.90
44647;DHT22;56315;-33.902;151.160;2023-02-15T03:29:32;29.40;99.90
44647;DHT22;56315;-33.902;151.160;2023-02-15T03:32:00;29.50;99.90
44647;DHT22;56315;-33.902;151.160;2023-02-15T03:34:30;29.40;99.90
44647;DHT22;56315;-33.902;151.160;2023-02-15T03:39:36;29.20;99.90
44647;DHT22;56315;-33.902;151.160;2023-02-15T03:44:47;29.10;99.90
44647;DHT22;56315;-33.902;151.160;2023-02-15T03:47:17;28.90;99.90
44647;DHT22;56315;-33.902;151.160;2023-02-15T03:49:48;28.90;99.90
44647;DHT22;56315;-33.902;151.160;2023-02-15T03:52:16;28.90;99.90
44647;DHT22;56315;-33.902;151.160;2023-02-15T03:54:44;28.80;99.90
44647;DHT22;56315;-33.902;151.160;2023-02-15T03:57:18;28.80;99.90
44647;DHT22;56315;-33.902;151.160;2023-02-15T04:00:08;28.70;99.90
44647;DHT22;56315;-33.902;151.160;2023-02-15T04:05:29;28.60;99.90
44647;DHT22;56315;-33.902;151.160;2023-02-15T04:07:55;28.60;99.90
44647;DHT22;56315;-33.902;151.160;2023-02-15T04:10:22;28.50;99.90
44647;DHT22;56315;-33.902;151.160;2023-02-15T04:13:06;28.40;99.90
44647;DHT22;56315;-33.902;151.160;2023-02-15T04:15:33;28.30;99.90
44647;DHT22;56315;-33.902;151.160;2023-02-15T04:18:18;28.20;99.90
44647;DHT22;56315;-33.902;151.160;2023-02-15T04:20:45;28.30;99.90
44647;DHT22;56315;-33.902;151.160;2023-02-15T04:23:29;28.20;99.90
44647;DHT22;56315;-33.902;151.160;2023-02-15T04:26:14;28.10;99.90
44647;DHT22;56315;-33.902;151.160;2023-02-15T04:28:41;28.00;99.90
44647;DHT22;56315;-33.902;151.160;2023-02-15T04:31:07;27.90;99.90
44647;DHT22;56315;-33.902;151.160;2023-02-15T04:33:37;27.80;99.90
44647;DHT22;56315;-33.902;151.160;2023-02-15T04:36:05;27.70;99.90
44647;DHT22;56315;-33.902;151.160;2023-02-15T04:38:31;27.60;99.90
44647;DHT22;56315;-33.902;151.160;2023-02-15T04:40:58;27.50;99.90
44647;DHT22;56315;-33.902;151.160;2023-02-15T04:43:25;27.50;99.90
44647;DHT22;56315;-33.902;151.160;2023-02-15T04:45:51;27.60;99.90
44647;DHT22;56315;-33.902;151.160;2023-02-15T04:48:18;27.70;99.90
44647;DHT22;56315;-33.902;151.160;2023-02-15T04:50:44;27.60;99.90
44647;DHT22;56315;-33.902;151.160;2023-02-15T04:53:11;27.50;99.90
44647;DHT22;56315;-33.902;151.160;2023-02-15T04:55:38;27.50;99.90
44647;DHT22;56315;-33.902;151.160;2023-02-15T04:58:04;27.40;99.90
44647;DHT22;56315;-33.902;151.160;2023-02-15T05:00:31;27.40;99.90
44647;DHT22;56315;-33.902;151.160;2023-02-15T05:02:58;27.30;99.90
44647;DHT22;56315;-33.902;151.160;2023-02-15T05:05:24;27.30;99.90
44647;DHT22;56315;-33.902;151.160;2023-02-15T05:07:51;27.30;99.90
44647;DHT22;56315;-33.902;151.160;2023-02-15T05:10:18;27.20;99.90
44647;DHT22;56315;-33.902;151.160;2023-02-15T05:12:44;27.10;99.90
44647;DHT22;56315;-33.902;151.160;2023-02-15T05:15:11;27.10;99.90
44647;DHT22;56315;-33.902;151.160;2023-02-15T05:17:38;27.00;99.90
44647;DHT22;56315;-33.902;151.160;2023-02-15T05:20:04;26.90;99.90
44647;DHT22;56315;-33.902;151.160;2023-02-15T05:22:31;26.80;99.90
44647;DHT22;56315;-33.902;151.160;2023-02-15T05:24:58;26.80;99.90
44647;DHT22;56315;-33.902;151.160;2023-02-15T05:27:42;26.70;99.90
44647;DHT22;56315;-33.902;151.160;2023-02-15T05:30:27;26.70;99.90
44647;DHT22;56315;-33.902;151.160;2023-02-15T05:32:54;26.80;99.90
44647;DHT22;56315;-33.902;151.160;2023-02-15T05:35:20;26.80;99.90
44647;DHT22;56315;-33.902;151.160;2023-02-15T05:37:47;26.80;99.90
44647;DHT22;56315;-33.902;151.160;2023-02-15T05:40:13;26.70;99.90
44647;DHT22;56315;-33.902;151.160;2023-02-15T05:42:40;26.60;99.90
44647;DHT22;56315;-33.902;151.160;2023-02-15T05:45:07;26.60;99.90
44647;DHT22;56315;-33.902;151.160;2023-02-15T05:47:33;26.60;99.90
44647;DHT22;56315;-33.902;151.160;2023-02-15T05:50:00;26.60;99.90
44647;DHT22;56315;-33.902;151.160;2023-02-15T05:52:27;26.50;99.90
44647;DHT22;56315;-33.902;151.160;2023-02-15T05:54:53;26.40;99.90
44647;DHT22;56315;-33.902;151.160;2023-02-15T05:57:20;26.30;99.90
44647;DHT22;56315;-33.902;151.160;2023-02-15T05:59:47;26.20;99.90
44647;DHT22;56315;-33.902;151.160;2023-02-15T06:02:13;26.00;99.90
44647;DHT22;56315;-33.902;151.160;2023-02-15T06:04:40;26.00;99.90
44647;DHT22;56315;-33.902;151.160;2023-02-15T06:07:06;25.90;99.90
44647;DHT22;56315;-33.902;151.160;2023-02-15T06:09:33;25.90;99.90
44647;DHT22;56315;-33.902;151.160;2023-02-15T06:11:59;25.80;99.90
44647;DHT22;56315;-33.902;151.160;2023-02-15T06:14:26;25.70;99.90
44647;DHT22;56315;-33.902;151.160;2023-02-15T06:16:53;25.60;99.90
44647;DHT22;56315;-33.902;151.160;2023-02-15T06:19:19;25.60;99.90
44647;DHT22;56315;-33.902;151.160;2023-02-15T06:21:46;25.50;99.90
44647;DHT22;56315;-33.902;151.160;2023-02-15T06:24:13;25.40;99.90
44647;DHT22;56315;-33.902;151.160;2023-02-15T06:26:40;25.30;99.90
44647;DHT22;56315;-33.902;151.160;2023-02-15T06:29:06;25.30;99.90
44647;DHT22;56315;-33.902;151.160;2023-02-15T06:31:33;25.30;99.90
44647;DHT22;56315;-33.902;151.160;2023-02-15T06:34:00;25.30;99.90
44647;DHT22;56315;-33.902;151.160;2023-02-15T06:36:27;25.20;99.90
44647;DHT22;56315;-33.902;151.160;2023-02-15T06:38:54;25.20;99.90
44647;DHT22;56315;-33.902;151.160;2023-02-15T06:41:21;25.20;99.90
44647;DHT22;56315;-33.902;151.160;2023-02-15T06:43:48;25.20;99.90
44647;DHT22;56315;-33.902;151.160;2023-02-15T06:46:15;25.20;99.90
44647;DHT22;56315;-33.902;151.160;2023-02-15T06:48:41;25.20;99.90
44647;DHT22;56315;-33.902;151.160;2023-02-15T06:51:08;25.20;99.90
44647;DHT22;56315;-33.902;151.160;2023-02-15T06:53:35;25.20;99.90
44647;DHT22;56315;-33.902;151.160;2023-02-15T06:56:02;25.20;99.90
44647;DHT22;56315;-33.902;151.160;2023-02-15T06:58:28;25.20;99.90
44647;DHT22;56315;-33.902;151.160;2023-02-15T07:00:55;25.20;99.90
44647;DHT22;56315;-33.902;151.160;2023-02-15T07:03:22;25.10;99.90
44647;DHT22;56315;-33.902;151.160;2023-02-15T07:05:48;25.10;99.90
44647;DHT22;56315;-33.902;151.160;2023-02-15T07:08:15;25.10;99.90
44647;DHT22;56315;-33.902;151.160;2023-02-15T07:10:44;25.10;99.90
44647;DHT22;56315;-33.902;151.160;2023-02-15T07:13:11;25.00;99.90
44647;DHT22;56315;-33.902;151.160;2023-02-15T07:15:38;25.00;99.90
44647;DHT22;56315;-33.902;151.160;2023-02-15T07:18:04;25.00;99.90
44647;DHT22;56315;-33.902;151.160;2023-02-15T07:20:31;24.90;99.90
44647;DHT22;56315;-33.902;151.160;2023-02-15T07:23:01;24.90;99.90
44647;DHT22;56315;-33.902;151.160;2023-02-15T07:25:28;24.80;99.90
44647;DHT22;56315;-33.902;151.160;2023-02-15T07:27:56;24.80;99.90
44647;DHT22;56315;-33.902;151.160;2023-02-15T07:30:22;24.70;99.90
44647;DHT22;56315;-33.902;151.160;2023-02-15T07:32:49;24.70;99.90
44647;DHT22;56315;-33.902;151.160;2023-02-15T07:35:34;24.60;99.90
44647;DHT22;56315;-33.902;151.160;2023-02-15T07:38:00;24.60;99.90
44647;DHT22;56315;-33.902;151.160;2023-02-15T07:40:27;24.50;99.90
44647;DHT22;56315;-33.902;151.160;2023-02-15T07:42:57;24.50;99.90
44647;DHT22;56315;-33.902;151.160;2023-02-15T07:45:24;24.50;99.90
44647;DHT22;56315;-33.902;151.160;2023-02-15T07:47:51;24.50;99.90
44647;DHT22;56315;-33.902;151.160;2023-02-15T07:50:18;24.50;99.90
44647;DHT22;56315;-33.902;151.160;2023-02-15T07:52:44;24.40;99.90
44647;DHT22;56315;-33.902;151.160;2023-02-15T07:55:11;24.40;99.90
44647;DHT22;56315;-33.902;151.160;2023-02-15T07:57:42;24.30;99.90
44647;DHT22;56315;-33.902;151.160;2023-02-15T08:00:10;24.30;99.90
44647;DHT22;56315;-33.902;151.160;2023-02-15T08:02:37;24.30;99.90
44647;DHT22;56315;-33.902;151.160;2023-02-15T08:05:04;24.20;99.90
44647;DHT22;56315;-33.902;151.160;2023-02-15T08:07:31;24.20;99.90
44647;DHT22;56315;-33.902;151.160;2023-02-15T08:09:57;24.10;99.90
44647;DHT22;56315;-33.902;151.160;2023-02-15T08:12:28;24.10;99.90
44647;DHT22;56315;-33.902;151.160;2023-02-15T08:14:54;24.10;99.90
44647;DHT22;56315;-33.902;151.160;2023-02-15T08:17:21;24.00;99.90
44647;DHT22;56315;-33.902;151.160;2023-02-15T08:19:49;23.90;99.90
44647;DHT22;56315;-33.902;151.160;2023-02-15T08:22:15;23.90;99.90
44647;DHT22;56315;-33.902;151.160;2023-02-15T08:24:42;23.80;99.90
44647;DHT22;56315;-33.902;151.160;2023-02-15T08:27:09;23.80;99.90
44647;DHT22;56315;-33.902;151.160;2023-02-15T08:29:37;23.70;99.90
44647;DHT22;56315;-33.902;151.160;2023-02-15T08:32:05;23.60;99.90
44647;DHT22;56315;-33.902;151.160;2023-02-15T08:34:34;23.60;99.90
44647;DHT22;56315;-33.902;151.160;2023-02-15T08:37:01;23.50;99.90
44647;DHT22;56315;-33.902;151.160;2023-02-15T08:39:28;23.50;99.90
44647;DHT22;56315;-33.902;151.160;2023-02-15T08:41:55;23.40;99.90
44647;DHT22;56315;-33.902;151.160;2023-02-15T08:44:21;23.40;99.90
44647;DHT22;56315;-33.902;151.160;2023-02-15T08:46:49;23.30;99.90
44647;DHT22;56315;-33.902;151.160;2023-02-15T08:49:17;23.30;99.90
44647;DHT22;56315;-33.902;151.160;2023-02-15T08:51:44;23.30;99.90
44647;DHT22;56315;-33.902;151.160;2023-02-15T08:54:15;23.30;99.90
44647;DHT22;56315;-33.902;151.160;2023-02-15T08:56:42;23.30;99.90
44647;DHT22;56315;-33.902;151.160;2023-02-15T08:59:13;23.20;99.90
44647;DHT22;56315;-33.902;151.160;2023-02-15T09:01:40;23.10;99.90
44647;DHT22;56315;-33.902;151.160;2023-02-15T09:04:07;23.10;99.90
44647;DHT22;56315;-33.902;151.160;2023-02-15T09:06:39;23.10;99.90
44647;DHT22;56315;-33.902;151.160;2023-02-15T09:09:06;23.10;99.90
44647;DHT22;56315;-33.902;151.160;2023-02-15T09:11:34;23.10;99.90
44647;DHT22;56315;-33.902;151.160;2023-02-15T09:14:02;23.10;99.90
44647;DHT22;56315;-33.902;151.160;2023-02-15T09:16:30;23.10;99.90
44647;DHT22;56315;-33.902;151.160;2023-02-15T09:18:57;23.10;99.90
44647;DHT22;56315;-33.902;151.160;2023-02-15T09:21:24;23.10;99.90
44647;DHT22;56315;-33.902;151.160;2023-02-15T09:23:54;23.10;99.90
44647;DHT22;56315;-33.902;151.160;2023-02-15T09:26:22;23.10;99.90
44647;DHT22;56315;-33.902;151.160;2023-02-15T09:28:53;23.10;99.90
44647;DHT22;56315;-33.902;151.160;2023-02-15T09:31:23;23.00;99.90
44647;DHT22;56315;-33.902;151.160;2023-02-15T09:33:50;22.90;99.90
44647;DHT22;56315;-33.902;151.160;2023-02-15T09:36:24;22.90;99.90
44647;DHT22;56315;-33.902;151.160;2023-02-15T09:38:57;22.90;99.90
44647;DHT22;56315;-33.902;151.160;2023-02-15T09:52:12;22.90;99.90
44647;DHT22;56315;-33.902;151.160;2023-02-15T09:57:18;22.90;99.90
44647;DHT22;56315;-33.902;151.160;2023-02-15T10:00:12;22.90;99.90
44647;DHT22;56315;-33.902;151.160;2023-02-15T10:20:33;22.70;99.90
44647;DHT22;56315;-33.902;151.160;2023-02-15T10:23:11;22.70;99.90
44647;DHT22;56315;-33.902;151.160;2023-02-15T10:25:51;22.70;99.90
44647;DHT22;56315;-33.902;151.160;2023-02-15T10:28:23;22.70;99.90
44647;DHT22;56315;-33.902;151.160;2023-02-15T10:30:58;22.70;99.90
44647;DHT22;56315;-33.902;151.160;2023-02-15T10:33:40;22.70;99.90
44647;DHT22;56315;-33.902;151.160;2023-02-15T10:36:19;22.70;99.90
44647;DHT22;56315;-33.902;151.160;2023-02-15T10:49:18;22.60;99.90
44647;DHT22;56315;-33.902;151.160;2023-02-15T10:52:32;22.60;99.90
44647;DHT22;56315;-33.902;151.160;2023-02-15T10:54:44;22.50;99.90
44647;DHT22;56315;-33.902;151.160;2023-02-15T10:57:21;22.50;99.90
44647;DHT22;56315;-33.902;151.160;2023-02-15T11:05:02;22.50;99.90
44647;DHT22;56315;-33.902;151.160;2023-02-15T11:07:52;22.50;99.90
44647;DHT22;56315;-33.902;151.160;2023-02-15T11:12:53;22.50;99.90
44647;DHT22;56315;-33.902;151.160;2023-02-15T11:15:26;22.40;99.90
44647;DHT22;56315;-33.902;151.160;2023-02-15T11:17:56;22.40;99.90
44647;DHT22;56315;-33.902;151.160;2023-02-15T11:23:17;22.40;99.90
44647;DHT22;56315;-33.902;151.160;2023-02-15T11:25:52;22.40;99.90
44647;DHT22;56315;-33.902;151.160;2023-02-15T11:28:55;22.40;99.90
44647;DHT22;56315;-33.902;151.160;2023-02-15T11:31:18;22.40;99.90
44647;DHT22;56315;-33.902;151.160;2023-02-15T11:34:11;22.30;99.90
44647;DHT22;56315;-33.902;151.160;2023-02-15T11:36:32;22.30;99.90
44647;DHT22;56315;-33.902;151.160;2023-02-15T11:39:04;22.30;99.90
44647;DHT22;56315;-33.902;151.160;2023-02-15T11:41:34;22.30;99.90
44647;DHT22;56315;-33.902;151.160;2023-02-15T11:46:30;22.20;99.90
44647;DHT22;56315;-33.902;151.160;2023-02-15T11:48:57;22.10;99.90
44647;DHT22;56315;-33.902;151.160;2023-02-15T11:51:24;22.10;99.90
44647;DHT22;56315;-33.902;151.160;2023-02-15T11:53:53;22.00;99.90
44647;DHT22;56315;-33.902;151.160;2023-02-15T11:56:21;22.00;99.90
44647;DHT22;56315;-33.902;151.160;2023-02-15T11:58:50;22.00;99.90
44647;DHT22;56315;-33.902;151.160;2023-02-15T12:03:50;21.90;99.90
44647;DHT22;56315;-33.902;151.160;2023-02-15T12:06:28;21.90;99.90
44647;DHT22;56315;-33.902;151.160;2023-02-15T12:09:02;21.90;99.90
44647;DHT22;56315;-33.902;151.160;2023-02-15T12:11:37;21.90;99.90
44647;DHT22;56315;-33.902;151.160;2023-02-15T12:14:05;21.90;99.90
44647;DHT22;56315;-33.902;151.160;2023-02-15T12:16:34;21.90;99.90
44647;DHT22;56315;-33.902;151.160;2023-02-15T12:19:09;21.80;99.90
44647;DHT22;56315;-33.902;151.160;2023-02-15T12:21:39;21.90;99.90
44647;DHT22;56315;-33.902;151.160;2023-02-15T12:24:23;21.80;99.90
44647;DHT22;56315;-33.902;151.160;2023-02-15T12:27:24;21.80;99.90
44647;DHT22;56315;-33.902;151.160;2023-02-15T12:29:48;21.80;99.90
44647;DHT22;56315;-33.902;151.160;2023-02-15T12:32:28;21.80;99.90
44647;DHT22;56315;-33.902;151.160;2023-02-15T12:34:59;21.80;99.90
44647;DHT22;56315;-33.902;151.160;2023-02-15T12:37:27;21.70;99.90
44647;DHT22;56315;-33.902;151.160;2023-02-15T12:39:56;21.60;99.90
44647;DHT22;56315;-33.902;151.160;2023-02-15T12:42:23;21.60;99.90
44647;DHT22;56315;-33.902;151.160;2023-02-15T12:44:57;21.60;99.90
44647;DHT22;56315;-33.902;151.160;2023-02-15T12:47:24;21.60;99.90
44647;DHT22;56315;-33.902;151.160;2023-02-15T12:52:49;21.60;99.90
44647;DHT22;56315;-33.902;151.160;2023-02-15T12:55:23;21.50;99.90
44647;DHT22;56315;-33.902;151.160;2023-02-15T13:00:47;21.40;99.90
44647;DHT22;56315;-33.902;151.160;2023-02-15T13:03:18;21.40;99.90
44647;DHT22;56315;-33.902;151.160;2023-02-15T13:05:50;21.30;99.90
44647;DHT22;56315;-33.902;151.160;2023-02-15T13:08:20;21.20;99.90
44647;DHT22;56315;-33.902;151.160;2023-02-15T13:10:54;21.10;99.90
44647;DHT22;56315;-33.902;151.160;2023-02-15T13:16:13;21.00;99.90
44647;DHT22;56315;-33.902;151.160;2023-02-15T13:18:44;20.90;99.90
44647;DHT22;56315;-33.902;151.160;2023-02-15T13:21:12;20.90;99.90
44647;DHT22;56315;-33.902;151.160;2023-02-15T13:23:42;20.80;99.90
44647;DHT22;56315;-33.902;151.160;2023-02-15T13:26:17;20.80;99.90
44647;DHT22;56315;-33.902;151.160;2023-02-15T13:28:55;20.70;99.90
44647;DHT22;56315;-33.902;151.160;2023-02-15T13:31:26;20.60;99.90
44647;DHT22;56315;-33.902;151.160;2023-02-15T13:34:09;20.50;99.90
44647;DHT22;56315;-33.902;151.160;2023-02-15T13:39:11;20.50;99.90
44647;DHT22;56315;-33.902;151.160;2023-02-15T13:54:33;20.10;99.90
44647;DHT22;56315;-33.902;151.160;2023-02-15T13:59:44;20.00;99.90
44647;DHT22;56315;-33.902;151.160;2023-02-15T14:07:47;19.90;99.90
44647;DHT22;56315;-33.902;151.160;2023-02-15T14:15:49;19.70;99.90
44647;DHT22;56315;-33.902;151.160;2023-02-15T14:23:32;19.60;99.90
44647;DHT22;56315;-33.902;151.160;2023-02-15T14:28:51;19.50;99.90
44647;DHT22;56315;-33.902;151.160;2023-02-15T14:31:21;19.50;99.90
44647;DHT22;56315;-33.902;151.160;2023-02-15T14:33:52;19.50;99.90
44647;DHT22;56315;-33.902;151.160;2023-02-15T14:36:20;19.50;99.90
44647;DHT22;56315;-33.902;151.160;2023-02-15T14:38:51;19.40;99.90
44647;DHT22;56315;-33.902;151.160;2023-02-15T14:41:31;19.40;99.90
44647;DHT22;56315;-33.902;151.160;2023-02-15T14:44:07;19.40;99.90
44647;DHT22;56315;-33.902;151.160;2023-02-15T14:46:42;19.40;99.90
44647;DHT22;56315;-33.902;151.160;2023-02-15T14:49:22;19.30;99.90
44647;DHT22;56315;-33.902;151.160;2023-02-15T14:56:46;19.30;99.90
44647;DHT22;56315;-33.902;151.160;2023-02-15T15:07:14;19.10;99.90
44647;DHT22;56315;-33.902;151.160;2023-02-15T15:09:45;19.10;99.90
44647;DHT22;56315;-33.902;151.160;2023-02-15T15:14:48;19.00;99.90
44647;DHT22;56315;-33.902;151.160;2023-02-15T15:19:59;19.00;99.90
44647;DHT22;56315;-33.902;151.160;2023-02-15T15:22:26;19.00;99.90
44647;DHT22;56315;-33.902;151.160;2023-02-15T15:24:57;18.90;99.90
44647;DHT22;56315;-33.902;151.160;2023-02-15T15:30:48;18.80;99.90
44647;DHT22;56315;-33.902;151.160;2023-02-15T15:32:56;18.90;99.90
44647;DHT22;56315;-33.902;151.160;2023-02-15T15:50:53;18.60;99.90
44647;DHT22;56315;-33.902;151.160;2023-02-15T15:53:24;18.70;99.90
44647;DHT22;56315;-33.902;151.160;2023-02-15T15:55:52;18.60;99.90
44647;DHT22;56315;-33.902;151.160;2023-02-15T15:58:21;18.60;99.90
44647;DHT22;56315;-33.902;151.160;2023-02-15T16:03:20;18.60;99.90
44647;DHT22;56315;-33.902;151.160;2023-02-15T16:05:47;18.60;99.90
44647;DHT22;56315;-33.902;151.160;2023-02-15T16:08:35;18.60;99.90
44647;DHT22;56315;-33.902;151.160;2023-02-15T16:11:15;18.60;99.90
44647;DHT22;56315;-33.902;151.160;2023-02-15T16:13:43;18.60;99.90
44647;DHT22;56315;-33.902;151.160;2023-02-15T16:16:11;18.60;99.90
44647;DHT22;56315;-33.902;151.160;2023-02-15T16:18:38;18.50;99.90
44647;DHT22;56315;-33.902;151.160;2023-02-15T16:21:21;18.50;99.90
44647;DHT22;56315;-33.902;151.160;2023-02-15T16:24:11;18.50;99.90
44647;DHT22;56315;-33.902;151.160;2023-02-15T16:29:13;18.40;99.90
44647;DHT22;56315;-33.902;151.160;2023-02-15T16:31:40;18.40;99.90
44647;DHT22;56315;-33.902;151.160;2023-02-15T16:34:15;18.40;99.90
44647;DHT22;56315;-33.902;151.160;2023-02-15T16:36:43;18.40;99.90
44647;DHT22;56315;-33.902;151.160;2023-02-15T16:39:17;18.40;99.90
44647;DHT22;56315;-33.902;151.160;2023-02-15T16:41:44;18.30;99.90
44647;DHT22;56315;-33.902;151.160;2023-02-15T16:44:14;18.40;99.90
44647;DHT22;56315;-33.902;151.160;2023-02-15T16:46:43;18.30;99.90
44647;DHT22;56315;-33.902;151.160;2023-02-15T16:49:29;18.30;99.90
44647;DHT22;56315;-33.902;151.160;2023-02-15T16:52:00;18.30;99.90
44647;DHT22;56315;-33.902;151.160;2023-02-15T16:54:27;18.30;99.90
44647;DHT22;56315;-33.902;151.160;2023-02-15T16:56:54;18.30;99.90
44647;DHT22;56315;-33.902;151.160;2023-02-15T16:59:35;18.30;99.90
44647;DHT22;56315;-33.902;151.160;2023-02-15T17:05:13;18.30;99.90
44647;DHT22;56315;-33.902;151.160;2023-02-15T17:07:33;18.40;99.90
44647;DHT22;56315;-33.902;151.160;2023-02-15T17:10:16;18.30;99.90
44647;DHT22;56315;-33.902;151.160;2023-02-15T17:12:53;18.30;99.90
44647;DHT22;56315;-33.902;151.160;2023-02-15T17:15:33;18.20;99.90
44647;DHT22;56315;-33.902;151.160;2023-02-15T17:20:33;18.10;99.90
44647;DHT22;56315;-33.902;151.160;2023-02-15T17:23:01;18.10;99.90
44647;DHT22;56315;-33.902;151.160;2023-02-15T17:25:33;18.10;99.90
44647;DHT22;56315;-33.902;151.160;2023-02-15T17:28:01;18.10;99.90
44647;DHT22;56315;-33.902;151.160;2023-02-15T17:30:32;18.00;99.90
44647;DHT22;56315;-33.902;151.160;2023-02-15T17:33:02;18.00;99.90
44647;DHT22;56315;-33.902;151.160;2023-02-15T17:35:30;18.00;99.90
44647;DHT22;56315;-33.902;151.160;2023-02-15T17:38:16;18.10;99.90
44647;DHT22;56315;-33.902;151.160;2023-02-15T17:40:43;18.00;99.90
44647;DHT22;56315;-33.902;151.160;2023-02-15T17:43:09;18.00;99.90
44647;DHT22;56315;-33.902;151.160;2023-02-15T17:45:40;17.90;99.90
44647;DHT22;56315;-33.902;151.160;2023-02-15T17:48:09;18.00;99.90
44647;DHT22;56315;-33.902;151.160;2023-02-15T17:50:41;18.00;99.90
44647;DHT22;56315;-33.902;151.160;2023-02-15T17:53:07;18.00;99.90
44647;DHT22;56315;-33.902;151.160;2023-02-15T17:55:34;18.00;99.90
44647;DHT22;56315;-33.902;151.160;2023-02-15T17:58:04;18.00;99.90
44647;DHT22;56315;-33.902;151.160;2023-02-15T18:00:31;18.00;99.90
44647;DHT22;56315;-33.902;151.160;2023-02-15T18:03:18;17.90;99.90
44647;DHT22;56315;-33.902;151.160;2023-02-15T18:06:02;17.80;99.90